Time;durP1;ratioP1;P1;durP2;ratioP2;P2;SDS_P1;SDS_P2;PMS_P1;PMS_P2;Temp;Humidity;BMP_temperature;BMP_pressure;BME280_temperature;BME280_humidity;BME280_pressure;Samples;Min_cycle;Max_cycle;Signal;HPM_P1;HPM_P2
2023/09/12 00:01:22;;;;;;;12.07;5.78;;;;;;;17.16;100.00;98418.50;4921050;29;20110;-73
2023/09/12 00:03:47;;;;;;;14.98;6.07;;;;;;;16.98;100.00;98405.19;4937498;29;20043;-73
2023/09/12 00:06:13;;;;;;;16.27;5.75;;;;;;;16.95;100.00;98424.78;4922762;29;20089;-73
2023/09/12 00:08:38;;;;;;;13.18;6.18;;;;;;;16.76;100.00;98405.94;4934052;29;20027;-74
2023/09/12 00:11:10;;;;;;;15.45;5.80;;;;;;;16.68;100.00;98406.38;4937899;29;20028;-73
2023/09/12 00:13:36;;;;;;;15.50;6.15;;;;;;;16.68;100.00;98419.22;4941123;29;20423;-73
2023/09/12 00:16:02;;;;;;;17.55;6.35;;;;;;;16.50;100.00;98401.22;4938714;28;20086;-74
2023/09/12 00:18:27;;;;;;;13.48;6.28;;;;;;;16.50;100.00;98382.91;4934518;29;20035;-73
2023/09/12 00:20:53;;;;;;;14.40;6.40;;;;;;;16.68;100.00;98395.47;4919451;29;20020;-73
2023/09/12 00:23:20;;;;;;;15.73;5.82;;;;;;;16.64;100.00;98397.88;4935802;29;20062;-73
2023/09/12 00:25:46;;;;;;;11.35;6.03;;;;;;;16.58;100.00;98389.84;4937266;29;20027;-73
2023/09/12 00:28:11;;;;;;;15.30;6.00;;;;;;;16.60;100.00;98380.34;4920039;29;20059;-73
2023/09/12 00:30:36;;;;;;;13.10;5.57;;;;;;;16.56;100.00;98384.66;4930865;29;20032;-73
2023/09/12 00:33:01;;;;;;;12.07;5.40;;;;;;;16.38;100.00;98385.78;4934111;29;20518;-72
2023/09/12 00:35:27;;;;;;;19.92;6.63;;;;;;;16.37;100.00;98377.81;4937216;29;20028;-73
2023/09/12 00:37:52;;;;;;;11.93;5.55;;;;;;;16.42;100.00;98392.38;4936419;29;20031;-73
2023/09/12 00:40:17;;;;;;;13.45;5.85;;;;;;;16.51;100.00;98383.78;4935960;29;20027;-73
2023/09/12 00:42:43;;;;;;;12.50;5.72;;;;;;;16.41;100.00;98379.81;4936109;29;20404;-73
2023/09/12 00:45:09;;;;;;;10.65;5.53;;;;;;;16.35;100.00;98378.09;4934857;29;20083;-73
2023/09/12 00:47:36;;;;;;;12.65;5.80;;;;;;;16.41;100.00;98393.47;4912352;29;20027;-73
2023/09/12 00:50:03;;;;;;;13.35;6.18;;;;;;;16.23;100.00;98376.53;4935368;29;20023;-73
2023/09/12 00:52:29;;;;;;;14.77;6.25;;;;;;;16.39;100.00;98392.06;4936861;29;20019;-73
2023/09/12 00:54:55;;;;;;;10.88;5.38;;;;;;;16.19;100.00;98378.94;4925103;29;20404;-73
2023/09/12 00:57:21;;;;;;;12.10;5.40;;;;;;;16.19;100.00;98368.00;4935138;29;20028;-73
2023/09/12 00:59:51;;;;;;;12.55;5.30;;;;;;;16.30;100.00;98401.78;4932822;29;20024;-73
2023/09/12 01:02:17;;;;;;;12.88;5.07;;;;;;;16.27;100.00;98392.19;4927906;29;20035;-74
2023/09/12 01:04:44;;;;;;;10.13;5.15;;;;;;;16.23;100.00;98382.00;4924661;29;20079;-73
2023/09/12 01:07:09;;;;;;;12.98;5.80;;;;;;;16.16;100.00;98388.44;4935441;29;20065;-73
2023/09/12 01:09:34;;;;;;;10.85;5.43;;;;;;;16.12;100.00;98389.22;4919321;29;20484;-73
2023/09/12 01:12:02;;;;;;;13.13;6.22;;;;;;;16.12;100.00;98405.59;4936183;29;20082;-73
2023/09/12 01:14:28;;;;;;;13.20;5.47;;;;;;;16.19;100.00;98414.41;4936398;29;20090;-73
2023/09/12 01:16:54;;;;;;;11.50;5.70;;;;;;;16.14;100.00;98414.34;4935983;29;20031;-73
2023/09/12 01:19:19;;;;;;;14.65;5.90;;;;;;;15.83;100.00;98381.13;4936044;29;20028;-73
2023/09/12 01:22:03;;;;;;;9.32;5.88;;;;;;;15.92;100.00;98419.72;4930483;29;20122;-73
2023/09/12 01:24:57;;;;;;;13.77;5.47;;;;;;;15.76;100.00;98413.19;4933561;29;20027;-73
2023/09/12 01:27:34;;;;;;;12.05;5.28;;;;;;;15.84;100.00;98418.22;4935054;29;20024;-73
2023/09/12 01:30:04;;;;;;;12.02;5.50;;;;;;;15.86;100.00;98417.97;4935009;29;20471;-73
2023/09/12 01:32:31;;;;;;;9.02;5.15;;;;;;;15.91;100.00;98405.25;4917793;29;20644;-73
2023/09/12 01:34:56;;;;;;;14.70;6.22;;;;;;;16.02;100.00;98413.59;4941790;29;20035;-73
2023/09/12 01:37:22;;;;;;;11.85;5.80;;;;;;;15.90;100.00;98395.44;4935447;29;20542;-73
2023/09/12 01:39:47;;;;;;;10.40;5.45;;;;;;;15.90;100.00;98400.88;4922592;29;20074;-73
2023/09/12 01:42:16;;;;;;;11.73;5.97;;;;;;;15.87;100.00;98398.63;4936076;29;20361;-73
2023/09/12 01:44:44;;;;;;;11.00;5.47;;;;;;;15.85;100.00;98400.78;4934977;29;20035;-72
2023/09/12 01:47:11;;;;;;;12.40;5.68;;;;;;;15.88;100.00;98402.19;4931925;29;20036;-73
2023/09/12 01:49:39;;;;;;;11.85;5.78;;;;;;;15.83;100.00;98378.38;4929166;29;20039;-73
2023/09/12 01:52:05;;;;;;;14.20;5.78;;;;;;;15.76;100.00;98388.63;4931224;29;20161;-73
2023/09/12 01:54:32;;;;;;;17.75;6.30;;;;;;;15.73;100.00;98391.84;4918116;29;20495;-73
2023/09/12 01:56:58;;;;;;;17.35;6.10;;;;;;;15.72;100.00;98391.03;4935261;29;20480;-73
2023/09/12 01:59:24;;;;;;;10.88;5.07;;;;;;;15.68;100.00;98389.81;4912877;29;20273;-73
2023/09/12 02:01:50;;;;;;;10.90;4.93;;;;;;;15.63;100.00;98373.38;4932903;29;20028;-73
2023/09/12 02:04:15;;;;;;;16.95;6.10;;;;;;;15.68;100.00;98380.81;4938396;29;20125;-73
2023/09/12 02:06:41;;;;;;;12.63;6.00;;;;;;;15.84;100.00;98393.66;4936835;29;20170;-73
2023/09/12 02:09:06;;;;;;;17.10;6.40;;;;;;;15.72;100.00;98382.03;4935673;29;20051;-73
2023/09/12 02:11:31;;;;;;;17.05;6.38;;;;;;;15.75;100.00;98392.44;4934943;29;20058;-73
2023/09/12 02:13:57;;;;;;;14.25;5.93;;;;;;;15.61;100.00;98371.97;4935039;29;20032;-72
2023/09/12 02:16:22;;;;;;;13.70;6.28;;;;;;;15.61;100.00;98385.59;4934809;29;20075;-72
2023/09/12 02:18:48;;;;;;;15.25;6.47;;;;;;;15.57;100.00;98386.09;4932454;29;20393;-72
2023/09/12 02:21:13;;;;;;;17.95;6.25;;;;;;;15.51;100.00;98384.38;4937400;29;20024;-73
2023/09/12 02:23:38;;;;;;;13.77;6.05;;;;;;;15.55;100.00;98380.06;4937632;29;20473;-73
2023/09/12 02:26:04;;;;;;;10.88;6.38;;;;;;;15.64;100.00;98385.09;4934321;29;20118;-73
2023/09/12 02:28:29;;;;;;;13.65;5.65;;;;;;;15.60;100.00;98390.22;4932397;29;20038;-73
2023/09/12 02:30:54;;;;;;;18.88;6.25;;;;;;;15.66;100.00;98366.59;4933271;29;20377;-73
2023/09/12 02:33:20;;;;;;;12.85;6.57;;;;;;;15.56;100.00;98373.56;4935106;29;20044;-72
2023/09/12 02:35:45;;;;;;;18.52;6.55;;;;;;;15.73;100.00;98389.13;4934105;29;20469;-73
2023/09/12 02:38:10;;;;;;;14.68;6.32;;;;;;;15.56;100.00;98375.44;4917786;29;20027;-73
2023/09/12 02:40:36;;;;;;;14.63;6.57;;;;;;;15.49;100.00;98378.31;4934649;29;20020;-73
2023/09/12 02:43:01;;;;;;;17.30;6.43;;;;;;;15.51;100.00;98392.53;4934744;29;20044;-73
2023/09/12 02:45:26;;;;;;;18.50;6.47;;;;;;;15.53;100.00;98376.75;4932625;29;20110;-73
2023/09/12 02:47:52;;;;;;;16.05;7.05;;;;;;;15.55;100.00;98377.34;4934016;29;20031;-73
2023/09/12 02:50:17;;;;;;;20.67;6.75;;;;;;;15.44;100.00;98378.22;4917655;29;20114;-73
2023/09/12 02:52:43;;;;;;;14.95;7.50;;;;;;;15.52;100.00;98388.72;4934334;29;20034;-73
2023/09/12 02:55:08;;;;;;;13.38;6.55;;;;;;;15.56;100.00;98389.91;4933385;29;20063;-72
2023/09/12 02:57:34;;;;;;;12.43;6.65;;;;;;;15.46;100.00;98378.81;4934089;29;20054;-73
2023/09/12 02:59:59;;;;;;;12.25;5.82;;;;;;;15.57;100.00;98386.09;4934199;29;20459;-73
2023/09/12 03:02:24;;;;;;;12.15;6.22;;;;;;;15.50;100.00;98379.97;4916988;29;20048;-73
2023/09/12 03:04:50;;;;;;;14.27;6.55;;;;;;;15.41;100.00;98376.00;4933346;29;20059;-72
2023/09/12 03:07:15;;;;;;;18.00;6.60;;;;;;;15.42;100.00;98376.81;4936654;28;20042;-73
2023/09/12 03:09:40;;;;;;;14.27;6.40;;;;;;;15.37;100.00;98374.81;4926742;29;20107;-73
2023/09/12 03:12:06;;;;;;;13.93;7.18;;;;;;;15.40;100.00;98377.06;4934480;29;20043;-73
2023/09/12 03:14:31;;;;;;;14.02;6.43;;;;;;;15.32;100.00;98367.38;4935433;29;20392;-73
2023/09/12 03:16:56;;;;;;;12.63;7.03;;;;;;;15.34;100.00;98367.97;4936056;29;20035;-74
2023/09/12 03:19:22;;;;;;;16.42;6.72;;;;;;;15.39;100.00;98374.59;4935806;28;20035;-72
2023/09/12 03:21:47;;;;;;;20.50;7.15;;;;;;;15.28;100.00;98370.84;4917610;29;20019;-72
2023/09/12 03:24:12;;;;;;;12.02;6.18;;;;;;;15.18;100.00;98366.03;4916538;29;20133;-72
2023/09/12 03:26:38;;;;;;;18.48;6.05;;;;;;;15.24;100.00;98370.50;4916466;29;20026;-72
2023/09/12 03:29:04;;;;;;;24.52;7.50;;;;;;;15.18;100.00;98384.28;4934199;29;20028;-73
2023/09/12 03:31:30;;;;;;;15.55;6.68;;;;;;;14.98;100.00;98377.34;4933794;29;20039;-71
2023/09/12 03:33:55;;;;;;;13.18;6.43;;;;;;;15.00;100.00;98385.31;4916692;29;20055;-69
2023/09/12 03:36:21;;;;;;;15.25;7.20;;;;;;;14.95;100.00;98380.56;4938923;29;20055;-72
2023/09/12 03:38:46;;;;;;;15.07;6.30;;;;;;;14.96;100.00;98374.06;4932009;29;20114;-76
2023/09/12 03:41:11;;;;;;;21.45;6.57;;;;;;;14.85;100.00;98348.50;4918080;29;20024;-79
2023/09/12 03:43:37;;;;;;;12.07;6.70;;;;;;;15.04;100.00;98381.84;4918088;29;20032;-79
2023/09/12 03:46:03;;;;;;;15.75;7.13;;;;;;;15.02;100.00;98373.09;4914296;29;20031;-79
2023/09/12 03:48:30;;;;;;;14.73;6.80;;;;;;;15.05;100.00;98369.88;4933195;29;20118;-80
2023/09/12 03:50:56;;;;;;;12.63;6.30;;;;;;;15.19;100.00;98367.69;4919667;29;20038;-82
2023/09/12 03:53:21;;;;;;;12.35;6.40;;;;;;;15.21;100.00;98372.91;4921256;29;20028;-78
2023/09/12 03:55:47;;;;;;;9.88;6.28;;;;;;;15.10;100.00;98363.72;4910498;29;20396;-80
2023/09/12 03:58:12;;;;;;;14.80;5.88;;;;;;;15.11;100.00;98368.91;4915515;29;20030;-78
2023/09/12 04:00:37;;;;;;;12.73;6.28;;;;;;;15.06;100.00;98374.28;4919255;29;20067;-79
2023/09/12 04:03:03;;;;;;;11.38;6.07;;;;;;;14.92;100.00;98362.00;4920335;29;20546;-81
2023/09/12 04:05:28;;;;;;;16.05;6.53;;;;;;;14.82;100.00;98351.72;4920814;29;20032;-79
2023/09/12 04:07:53;;;;;;;15.60;6.60;;;;;;;14.92;100.00;98369.34;4921349;29;20047;-79
2023/09/12 04:10:22;;;;;;;14.68;6.45;;;;;;;14.96;100.00;98382.25;4937323;29;20028;-78
2023/09/12 04:12:47;;;;;;;13.02;6.30;;;;;;;15.00;100.00;98367.06;4940682;29;20024;-81
2023/09/12 04:15:12;;;;;;;9.55;6.40;;;;;;;14.94;100.00;98351.69;4915147;29;20046;-79
2023/09/12 04:17:38;;;;;;;15.95;7.18;;;;;;;14.85;100.00;98350.41;4915774;29;20106;-81
2023/09/12 04:20:07;;;;;;;15.88;6.95;;;;;;;14.81;100.00;98332.91;4939426;29;20099;-82
2023/09/12 04:22:33;;;;;;;19.50;7.25;;;;;;;14.92;100.00;98356.53;4920903;29;20036;-77
2023/09/12 04:24:58;;;;;;;18.73;7.90;;;;;;;15.06;100.00;98381.59;4923994;29;20028;-80
2023/09/12 04:27:23;;;;;;;14.25;7.60;;;;;;;15.17;100.00;98382.63;4931109;29;20076;-77
2023/09/12 04:29:49;;;;;;;15.45;7.00;;;;;;;15.32;100.00;98378.28;4933914;29;20103;-76
2023/09/12 04:32:16;;;;;;;25.30;6.50;;;;;;;15.38;100.00;98362.00;4937244;29;20031;-75
2023/09/12 04:34:44;;;;;;;18.20;7.40;;;;;;;15.43;100.00;98357.50;4917159;29;20028;-76
2023/09/12 04:37:09;;;;;;;18.90;6.53;;;;;;;15.32;100.00;98351.03;4937994;29;20028;-75
2023/09/12 04:39:35;;;;;;;17.48;7.20;;;;;;;15.45;100.00;98371.69;4936413;29;20475;-72
2023/09/12 04:42:00;;;;;;;18.27;6.20;;;;;;;15.42;100.00;98382.28;4919049;29;20027;-71
2023/09/12 04:44:25;;;;;;;17.80;6.22;;;;;;;15.49;100.00;98375.59;4934786;29;20461;-72
2023/09/12 04:46:50;;;;;;;13.15;5.75;;;;;;;15.43;100.00;98340.31;4936440;29;20260;-71
2023/09/12 04:49:16;;;;;;;12.57;5.90;;;;;;;15.59;100.00;98350.41;4934815;29;20035;-71
2023/09/12 04:51:42;;;;;;;15.10;6.40;;;;;;;15.65;100.00;98362.22;4935631;29;20030;-71
2023/09/12 04:54:08;;;;;;;13.27;5.78;;;;;;;15.64;100.00;98363.28;4930020;29;20035;-71
2023/09/12 04:56:33;;;;;;;15.77;6.28;;;;;;;15.52;100.00;98334.19;4936152;29;20035;-72
2023/09/12 04:58:58;;;;;;;13.90;5.88;;;;;;;15.80;100.00;98342.56;4919025;29;20042;-73
2023/09/12 05:01:25;;;;;;;16.65;6.35;;;;;;;15.87;100.00;98360.44;4935136;29;20118;-73
2023/09/12 05:03:50;;;;;;;14.48;5.60;;;;;;;15.85;100.00;98343.50;4938462;29;20059;-74
2023/09/12 05:06:16;;;;;;;13.77;5.63;;;;;;;16.03;100.00;98361.50;4936455;29;20050;-74
2023/09/12 05:08:41;;;;;;;9.93;5.70;;;;;;;16.02;100.00;98359.03;4926596;29;20399;-67
2023/09/12 05:11:06;;;;;;;11.20;5.63;;;;;;;16.14;100.00;98365.22;4929561;29;20083;-66
2023/09/12 05:13:31;;;;;;;14.80;6.60;;;;;;;16.21;100.00;98369.41;4934980;29;20110;-73
2023/09/12 05:15:57;;;;;;;14.15;6.10;;;;;;;16.15;100.00;98345.03;4918939;29;20031;-76
2023/09/12 05:18:23;;;;;;;16.40;6.97;;;;;;;16.15;100.00;98354.03;4912942;29;20571;-74
2023/09/12 05:20:48;;;;;;;12.20;6.85;;;;;;;16.21;100.00;98363.94;4950607;28;20027;-75
2023/09/12 05:23:14;;;;;;;17.02;7.03;;;;;;;16.34;100.00;98348.31;4937484;29;20038;-78
2023/09/12 05:25:39;;;;;;;17.52;6.60;;;;;;;16.71;100.00;98334.84;4919535;29;20038;-75
2023/09/12 05:28:05;;;;;;;21.35;7.50;;;;;;;16.90;100.00;98331.81;4936226;29;20480;-75
2023/09/12 05:30:30;;;;;;;13.70;7.03;;;;;;;17.08;100.00;98337.78;4916130;29;20543;-67
2023/09/12 05:32:56;;;;;;;14.98;6.93;;;;;;;17.22;100.00;98351.88;4934556;29;20024;-68
2023/09/12 05:35:21;;;;;;;18.88;7.03;;;;;;;17.51;100.00;98346.13;4935780;29;20151;-75
2023/09/12 05:37:46;;;;;;;13.65;6.80;;;;;;;18.41;100.00;98321.59;4937724;29;20023;-75
2023/09/12 05:40:12;;;;;;;13.38;6.05;;;;;;;20.14;100.00;98317.56;4936172;29;20106;-76
2023/09/12 05:42:37;;;;;;;12.10;5.28;;;;;;;21.53;100.00;98315.03;4928107;29;20106;-75
2023/09/12 05:45:02;;;;;;;13.20;5.10;;;;;;;22.43;100.00;98328.28;4919951;29;20096;-75
2023/09/12 05:47:28;;;;;;;13.25;4.95;;;;;;;22.88;100.00;98334.38;4925391;29;20028;-67
2023/09/12 05:49:53;;;;;;;10.55;5.15;;;;;;;23.67;100.00;98339.34;4938015;29;20023;-68
2023/09/12 05:52:19;;;;;;;9.48;5.03;;;;;;;23.39;100.00;98330.09;4935704;29;20031;-71
2023/09/12 05:54:44;;;;;;;9.75;4.93;;;;;;;22.70;100.00;98324.94;4918911;29;20476;-80
2023/09/12 05:57:10;;;;;;;13.80;6.35;;;;;;;21.92;100.00;98323.25;4946337;29;20137;-79
2023/09/12 05:59:37;;;;;;;11.98;5.70;;;;;;;21.59;100.00;98325.75;4936325;29;20034;-79
2023/09/12 06:02:04;;;;;;;19.40;5.68;;;;;;;21.17;100.00;98335.34;4935215;29;20062;-68
2023/09/12 06:04:35;;;;;;;16.58;5.90;;;;;;;21.12;100.00;98337.31;4935555;29;20051;-81
2023/09/12 06:07:02;;;;;;;14.75;5.38;;;;;;;21.71;100.00;98330.03;4915439;29;20484;-80
2023/09/12 06:09:27;;;;;;;15.73;5.53;;;;;;;21.89;100.00;98318.31;4918238;29;20050;-76
2023/09/12 06:11:53;;;;;;;13.40;5.57;;;;;;;21.93;100.00;98330.41;4940487;29;20091;-79
2023/09/12 06:14:18;;;;;;;14.05;5.07;;;;;;;21.57;100.00;98322.44;4927329;29;20059;-81
2023/09/12 06:16:44;;;;;;;13.10;4.88;;;;;;;21.64;100.00;98350.47;4922301;29;20027;-80
2023/09/12 06:19:09;;;;;;;13.50;4.93;;;;;;;21.35;100.00;98341.28;4926205;29;20456;-82
2023/09/12 06:21:34;;;;;;;13.95;5.70;;;;;;;22.14;100.00;98342.06;4926999;29;20074;-81
2023/09/12 06:24:23;;;;;;;16.05;4.97;;;;;;;24.21;100.00;98359.22;4925557;29;20503;-80
2023/09/12 06:26:49;;;;;;;;;;;;;;;25.63;100.00;98357.44;4929805;29;20487;-78
2023/09/12 06:29:15;;;;;;;11.05;5.78;;;;;;;28.05;100.00;98364.22;4923766;29;19914;-80
2023/09/12 06:31:43;;;;;;;18.42;5.78;;;;;;;29.81;92.94;98336.03;4938874;29;20071;-72
2023/09/12 06:34:09;;;;;;;15.73;5.10;;;;;;;28.14;97.64;98350.34;4930125;29;20467;-74
2023/09/12 06:36:34;;;;;;;12.48;4.97;;;;;;;27.20;100.00;98347.22;4920088;29;20143;-73
2023/09/12 06:39:00;;;;;;;16.23;4.43;;;;;;;28.04;100.00;98354.28;4921042;29;20031;-73
2023/09/12 06:41:26;;;;;;;11.73;4.90;;;;;;;30.30;85.15;98358.56;4931069;29;20096;-75
2023/09/12 06:43:52;;;;;;;12.15;4.10;;;;;;;33.78;67.40;98366.50;4931601;29;20027;-73
2023/09/12 06:46:17;;;;;;;15.05;4.78;;;;;;;34.69;61.08;98359.50;4921137;29;20564;-73
2023/09/12 06:48:46;;;;;;;11.85;4.60;;;;;;;31.42;68.68;98363.91;4933418;29;20501;-73
2023/09/12 06:51:11;;;;;;;15.00;4.85;;;;;;;30.14;75.59;98366.72;4937679;29;20102;-73
2023/09/12 06:53:37;;;;;;;9.57;4.78;;;;;;;27.66;93.41;98365.22;4931517;29;20183;-74
2023/09/12 06:56:06;;;;;;;9.52;4.70;;;;;;;26.34;100.00;98367.88;4929106;29;20024;-73
2023/09/12 06:58:31;;;;;;;13.15;4.80;;;;;;;25.34;100.00;98368.91;4934750;29;20068;-74
2023/09/12 07:01:05;;;;;;;12.95;4.75;;;;;;;25.50;100.00;98370.19;4932089;29;20109;-75
2023/09/12 07:03:34;;;;;;;11.20;4.10;;;;;;;26.69;100.00;98359.75;4930035;29;20024;-74
2023/09/12 07:06:00;;;;;;;13.52;4.78;;;;;;;26.67;100.00;98351.75;4934507;29;20019;-73
2023/09/12 07:08:26;;;;;;;16.17;5.32;;;;;;;27.71;100.00;98360.31;4938382;29;20046;-73
2023/09/12 07:10:54;;;;;;;12.40;4.82;;;;;;;31.06;99.23;98361.13;4934191;29;20030;-73
2023/09/12 07:13:19;;;;;;;17.38;4.18;;;;;;;33.49;78.47;98375.47;4934682;29;20027;-75
2023/09/12 07:15:45;;;;;;;16.88;4.38;;;;;;;35.60;67.05;98373.00;4938292;29;20471;-76
2023/09/12 07:18:10;;;;;;;10.18;4.50;;;;;;;34.58;64.77;98355.66;4938758;28;20543;-72
2023/09/12 07:20:36;;;;;;;13.40;4.68;;;;;;;32.57;70.37;98389.63;4934084;29;20071;-71
2023/09/12 07:23:01;;;;;;;13.25;4.43;;;;;;;30.76;78.12;98395.66;4927288;29;20028;-72
2023/09/12 07:25:26;;;;;;;11.63;4.60;;;;;;;30.35;83.54;98389.03;4934374;29;20031;-72
2023/09/12 07:27:52;;;;;;;11.75;4.38;;;;;;;29.49;86.81;98387.75;4934088;29;20099;-72
2023/09/12 07:30:17;;;;;;;15.45;5.03;;;;;;;28.54;98.54;98387.06;4936210;29;20075;-72
2023/09/12 07:32:43;;;;;;;12.88;4.47;;;;;;;27.42;100.00;98402.63;4916434;29;20115;-72
2023/09/12 07:35:08;;;;;;;14.05;4.88;;;;;;;27.02;100.00;98386.00;4933904;29;20051;-72
2023/09/12 07:37:33;;;;;;;24.73;5.10;;;;;;;27.16;100.00;98396.16;4916905;29;20559;-72
2023/09/12 07:39:58;;;;;;;13.02;4.80;;;;;;;27.84;100.00;98391.91;4916333;29;20114;-72
2023/09/12 07:42:24;;;;;;;13.77;5.22;;;;;;;29.77;100.00;98393.66;4932495;29;20059;-77
2023/09/12 07:44:50;;;;;;;17.55;5.10;;;;;;;32.13;83.82;98380.38;4912628;29;20027;-77
2023/09/12 07:47:15;;;;;;;16.90;4.88;;;;;;;35.14;70.07;98379.53;4944097;29;20039;-76
2023/09/12 07:49:41;;;;;;;11.75;4.55;;;;;;;36.72;61.40;98384.41;4918262;29;20407;-78
2023/09/12 07:52:06;;;;;;;17.67;5.35;;;;;;;37.47;56.95;98348.34;4913087;29;20016;-80
2023/09/12 07:54:32;;;;;;;14.20;4.55;;;;;;;38.27;54.25;98378.56;4937088;29;20032;-78
2023/09/12 07:56:57;;;;;;;12.55;4.45;;;;;;;36.60;55.70;98388.31;4938417;29;20030;-78
2023/09/12 07:59:23;;;;;;;14.75;4.72;;;;;;;33.32;62.95;98377.47;4936159;29;20050;-79
2023/09/12 08:01:48;;;;;;;13.25;4.50;;;;;;;33.25;66.77;98382.09;4917517;29;20024;-77
2023/09/12 08:04:14;;;;;;;11.80;4.75;;;;;;;34.45;61.47;98371.03;4918404;29;20068;-77
2023/09/12 08:06:41;;;;;;;11.35;5.20;;;;;;;34.15;61.05;98368.88;4937123;29;20023;-77
2023/09/12 08:09:06;;;;;;;14.38;4.70;;;;;;;32.10;65.41;98373.50;4919959;29;20126;-74
2023/09/12 08:11:32;;;;;;;12.63;4.93;;;;;;;30.44;72.12;98376.97;4936629;29;20098;-75
2023/09/12 08:13:57;;;;;;;16.05;5.68;;;;;;;29.24;80.72;98386.81;4937657;29;20035;-75
2023/09/12 08:16:23;;;;;;;11.90;5.03;;;;;;;29.62;87.20;98411.78;4935855;29;20062;-79
2023/09/12 08:18:48;;;;;;;14.50;4.65;;;;;;;33.11;71.93;98394.59;4920821;29;20028;-77
2023/09/12 08:21:13;;;;;;;16.98;4.93;;;;;;;34.83;62.58;98394.66;4921137;29;20047;-76
2023/09/12 08:23:39;;;;;;;10.93;4.57;;;;;;;36.02;58.97;98394.44;4919559;29;20031;-76
2023/09/12 08:26:04;;;;;;;16.70;4.97;;;;;;;37.63;53.18;98396.03;4939090;29;20015;-77
2023/09/12 08:28:30;;;;;;;12.63;4.68;;;;;;;35.75;55.84;98408.59;4917926;29;20072;-76
2023/09/12 08:30:55;;;;;;;8.90;4.88;;;;;;;36.85;54.27;98403.44;4938921;29;20028;-77
2023/09/12 08:33:20;;;;;;;9.45;4.68;;;;;;;36.76;53.27;98411.44;4923083;29;20035;-79
2023/09/12 08:35:46;;;;;;;7.72;5.00;;;;;;;38.23;50.06;98408.81;4943376;29;20028;-77
2023/09/12 08:38:11;;;;;;;8.18;4.55;;;;;;;39.10;48.91;98402.19;4940056;29;20399;-77
2023/09/12 08:40:37;;;;;;;13.38;4.97;;;;;;;40.09;45.92;98384.19;4939002;29;20149;-78
2023/09/12 08:43:03;;;;;;;9.43;4.20;;;;;;;41.96;43.61;98389.22;4920174;29;20374;-74
2023/09/12 08:45:29;;;;;;;13.15;4.65;;;;;;;41.78;43.20;98394.28;4953013;28;20030;-79
2023/09/12 08:47:56;;;;;;;8.85;4.40;;;;;;;37.61;47.49;98384.31;4954904;28;20032;-78
2023/09/12 08:50:23;;;;;;;8.85;4.40;;;;;;;34.68;53.35;98397.19;4937563;29;20499;-79
2023/09/12 08:52:49;;;;;;;10.35;4.70;;;;;;;34.25;55.63;98407.59;4937349;29;20439;-78
2023/09/12 08:55:14;;;;;;;11.07;4.80;;;;;;;33.48;57.92;98402.66;4920367;29;20175;-73
2023/09/12 08:57:45;;;;;;;10.50;4.47;;;;;;;33.41;59.20;98407.34;4918359;29;20096;-73
2023/09/12 09:00:14;;;;;;;13.02;5.18;;;;;;;33.83;58.58;98402.69;4918447;29;20423;-73
2023/09/12 09:02:43;;;;;;;14.07;5.18;;;;;;;33.58;58.79;98393.72;4935533;29;20162;-73
2023/09/12 09:05:10;;;;;;;12.45;4.97;;;;;;;34.21;57.99;98391.84;4936734;29;20090;-73
2023/09/12 09:07:37;;;;;;;11.68;5.28;;;;;;;37.01;53.30;98377.81;4936944;29;20046;-74
2023/09/12 09:10:05;;;;;;;12.55;5.20;;;;;;;38.56;50.46;98385.94;4935787;29;20483;-74
2023/09/12 09:12:31;;;;;;;6.03;4.20;;;;;;;41.56;45.39;98371.00;4919369;29;20034;-73
2023/09/12 09:14:56;;;;;;;13.43;4.82;;;;;;;40.36;45.22;98368.69;4919772;29;20279;-73
2023/09/12 09:17:23;;;;;;;6.22;3.75;;;;;;;42.95;42.37;98390.31;4935754;29;20396;-73
2023/09/12 09:19:48;;;;;;;10.48;4.57;;;;;;;41.11;43.35;98371.00;4936067;29;20476;-73
2023/09/12 09:22:13;;;;;;;7.57;4.38;;;;;;;41.43;43.40;98390.59;4923769;29;20031;-73
2023/09/12 09:24:39;;;;;;;14.02;4.18;;;;;;;42.45;42.25;98364.22;4943387;29;20042;-73
2023/09/12 09:27:04;;;;;;;13.00;4.28;;;;;;;42.00;41.32;98366.44;4938676;28;20134;-73
2023/09/12 09:29:31;;;;;;;6.90;4.65;;;;;;;43.05;40.29;98380.75;4936625;29;20047;-73
2023/09/12 09:31:59;;;;;;;6.03;3.58;;;;;;;41.37;42.10;98369.53;4941476;29;20104;-76
2023/09/12 09:34:27;;;;;;;7.15;4.00;;;;;;;40.31;42.31;98369.94;4919044;29;20032;-76
2023/09/12 09:36:54;;;;;;;8.57;3.80;;;;;;;42.10;41.17;98365.47;4940719;28;20031;-75
2023/09/12 09:39:25;;;;;;;10.07;4.30;;;;;;;42.96;39.52;98360.59;4935837;29;20036;-75
2023/09/12 09:41:52;;;;;;;9.85;4.30;;;;;;;42.96;39.09;98369.13;4935849;29;20024;-76
2023/09/12 09:44:18;;;;;;;10.75;4.15;;;;;;;44.00;38.08;98356.66;4934867;29;20096;-74
2023/09/12 09:46:45;;;;;;;9.27;3.83;;;;;;;44.28;37.80;98365.81;4917248;29;20126;-73
2023/09/12 09:49:14;;;;;;;8.27;4.22;;;;;;;44.26;38.00;98359.75;4933891;29;20090;-74
2023/09/12 09:51:43;;;;;;;6.47;3.90;;;;;;;45.08;36.70;98365.56;4936185;29;20030;-74
2023/09/12 09:54:09;;;;;;;13.60;4.22;;;;;;;45.03;36.39;98366.91;4934218;29;20078;-74
2023/09/12 09:56:47;;;;;;;11.07;3.97;;;;;;;44.07;38.33;98355.69;4919453;29;20024;-81
2023/09/12 09:59:18;;;;;;;7.78;3.72;;;;;;;44.02;38.79;98348.47;4939319;29;20050;-81
2023/09/12 10:01:45;;;;;;;5.80;3.60;;;;;;;44.28;37.38;98345.84;4919970;29;20441;-80
2023/09/12 10:04:11;;;;;;;7.25;3.97;;;;;;;42.97;38.35;98326.03;4936753;29;20046;-79
2023/09/12 10:06:37;;;;;;;5.93;3.38;;;;;;;44.16;37.33;98353.03;4919465;29;20635;-79
2023/09/12 10:09:07;;;;;;;11.57;4.05;;;;;;;46.58;35.36;98338.41;4936752;29;20024;-78
2023/09/12 10:11:33;;;;;;;16.48;4.20;;;;;;;45.86;35.33;98328.38;4938546;29;20067;-80
2023/09/12 10:14:02;;;;;;;6.38;3.45;;;;;;;47.49;34.48;98319.81;4918858;29;20102;-78
2023/09/12 10:16:34;;;;;;;10.07;3.83;;;;;;;47.97;33.48;98332.75;4917594;29;20020;-77
2023/09/12 10:19:17;;;;;;;8.23;3.60;;;;;;;48.06;33.06;98324.19;4921137;29;20114;-79
2023/09/12 10:21:49;;;;;;;7.70;3.95;;;;;;;49.17;32.89;98330.38;4940228;29;20020;-77
2023/09/12 10:24:15;;;;;;;7.32;3.42;;;;;;;48.45;32.53;98330.47;4920545;29;20031;-77
2023/09/12 10:26:45;;;;;;;4.73;3.03;;;;;;;46.87;33.22;98326.03;4917354;29;20102;-76
2023/09/12 10:29:13;;;;;;;7.18;3.15;;;;;;;46.06;33.68;98328.19;4935720;29;20046;-76
2023/09/12 10:31:39;;;;;;;5.82;3.65;;;;;;;45.52;35.76;98320.34;4918095;29;20019;-77
2023/09/12 10:34:09;;;;;;;9.10;3.20;;;;;;;47.02;34.50;98312.81;4935315;29;20040;-77
2023/09/12 10:36:38;;;;;;;7.43;3.30;;;;;;;47.14;33.39;98316.97;4917477;29;20027;-76
2023/09/12 10:39:05;;;;;;;10.27;4.30;;;;;;;48.13;32.46;98314.50;4916931;29;20027;-76
2023/09/12 10:41:30;;;;;;;6.78;3.53;;;;;;;47.51;32.87;98325.91;4932944;29;20028;-76
2023/09/12 10:43:57;;;;;;;12.38;3.78;;;;;;;45.96;32.62;98329.31;4918880;29;20514;-76
2023/09/12 10:46:23;;;;;;;5.05;2.95;;;;;;;47.34;31.73;98326.03;4938526;28;20098;-76
2023/09/12 10:48:49;;;;;;;5.88;3.00;;;;;;;47.76;32.29;98313.47;4936463;29;20154;-76
2023/09/12 10:51:16;;;;;;;8.10;3.17;;;;;;;47.18;32.08;98315.56;4934454;29;20051;-76
2023/09/12 10:53:49;;;;;;;5.85;3.00;;;;;;;47.92;32.93;98323.94;4933694;29;20792;-76
2023/09/12 10:56:21;;;;;;;7.07;3.17;;;;;;;48.13;32.55;98311.63;4934177;29;20070;-76
2023/09/12 10:59:03;;;;;;;5.40;3.35;;;;;;;48.39;32.27;98315.13;4935057;29;20035;-76
2023/09/12 11:01:36;;;;;;;7.57;3.60;;;;;;;47.24;31.55;98307.16;4937064;29;20502;-76
2023/09/12 11:04:27;;;;;;;7.10;3.28;;;;;;;47.04;32.29;98315.25;4946432;28;20046;-76
2023/09/12 11:06:53;;;;;;;8.98;3.38;;;;;;;47.56;32.10;98311.75;4933635;29;20031;-76
2023/09/12 11:09:22;;;;;;;6.28;3.00;;;;;;;49.48;30.74;98317.94;4933268;29;20074;-76
2023/09/12 11:11:56;;;;;;;7.78;3.20;;;;;;;48.71;31.25;98304.41;4934280;29;20099;-76
2023/09/12 11:14:23;;;;;;;10.18;3.10;;;;;;;44.16;33.82;98327.38;4917609;29;20032;-76
2023/09/12 11:17:07;;;;;;;7.80;3.55;;;;;;;43.24;34.81;98328.81;4934328;29;20023;-76
2023/09/12 11:19:51;;;;;;;6.43;3.25;;;;;;;43.71;36.03;98317.31;4936738;29;20087;-76